Time;durP1;ratioP1;P1;durP2;ratioP2;P2;SDS_P1;SDS_P2;PMS_P1;PMS_P2;Temp;Humidity;BMP_temperature;BMP_pressure;BME280_temperature;BME280_humidity;BME280_pressure;Samples;Min_cycle;Max_cycle;Signal;HPM_P1;HPM_P2
2023/07/02 00:02:07;;;;;;;;;;;;;;;22.67;46.54;100582.09;5074886;28;19919;-72
2023/07/02 00:04:33;;;;;;;;;;;;;;;22.66;46.59;100580.44;5058108;28;20190;-71
2023/07/02 00:07:01;;;;;;;;;;;;;;;22.66;46.50;100575.03;5064219;28;19909;-71
2023/07/02 00:09:26;;;;;;;;;;;;;;;22.65;46.37;100566.06;5064564;28;19922;-72
2023/07/02 00:11:51;;;;;;;;;;;;;;;22.65;46.43;100560.63;5062108;28;20475;-71
2023/07/02 00:14:17;;;;;;;;;;;;;;;22.65;46.50;100566.06;5062168;28;20002;-72
2023/07/02 00:16:43;;;;;;;;;;;;;;;22.65;46.64;100574.19;5065019;28;19920;-72
2023/07/02 00:19:08;;;;;;;;;;;;;;;22.64;46.58;100571.66;5061925;28;19913;-72
2023/07/02 00:21:33;;;;;;;;;;;;;;;22.64;46.47;100566.25;5043687;28;19921;-72
2023/07/02 00:24:00;;;;;;;;;;;;;;;22.64;46.67;100566.25;5069033;28;19924;-72
2023/07/02 00:26:25;;;;;;;;;;;;;;;22.62;46.63;100565.63;5051537;28;20012;-72
2023/07/02 00:28:51;;;;;;;;;;;;;;;22.62;46.33;100562.91;5070849;28;19923;-71
2023/07/02 00:31:16;;;;;;;;;;;;;;;22.62;46.62;100562.91;5061820;28;19912;-72
2023/07/02 00:33:41;;;;;;;;;;;;;;;22.61;46.52;100564.78;5043631;28;19976;-72
2023/07/02 00:36:06;;;;;;;;;;;;;;;22.62;46.50;100573.75;5038389;28;19923;-71
2023/07/02 00:38:32;;;;;;;;;;;;;;;22.61;46.64;100570.22;5060019;28;19917;-71
2023/07/02 00:40:57;;;;;;;;;;;;;;;22.61;46.60;100563.97;5063506;28;19920;-72
2023/07/02 00:43:22;;;;;;;;;;;;;;;22.61;46.57;100563.97;5061193;28;19926;-71
2023/07/02 00:45:47;;;;;;;;;;;;;;;22.59;46.62;100561.44;5063733;28;19919;-71
2023/07/02 00:48:13;;;;;;;;;;;;;;;22.60;46.57;100564.97;5056969;28;20038;-71
2023/07/02 00:50:38;;;;;;;;;;;;;;;22.60;46.70;100559.56;5054125;28;19913;-72
2023/07/02 00:53:04;;;;;;;;;;;;;;;22.59;46.61;100560.59;5041681;28;19927;-72
2023/07/02 00:55:29;;;;;;;;;;;;;;;22.58;46.37;100556.22;5068815;28;19988;-72
2023/07/02 00:57:56;;;;;;;;;;;;;;;22.59;46.36;100566.00;5065520;28;19913;-72
2023/07/02 01:00:21;;;;;;;;;;;;;;;22.58;46.61;100570.59;5029733;28;19943;-72
2023/07/02 01:02:57;;;;;;;;;;;;;;;22.58;46.74;100569.78;5070792;28;19913;-72
2023/07/02 01:05:22;;;;;;;;;;;;;;;22.58;46.28;100577.91;5048324;28;20008;-71
2023/07/02 01:07:47;;;;;;;;;;;;;;;22.57;46.58;100579.78;5065030;28;19912;-71
2023/07/02 01:10:12;;;;;;;;;;;;;;;22.56;46.46;100578.09;5063855;28;20443;-71
2023/07/02 01:12:37;;;;;;;;;;;;;;;22.56;46.56;100569.97;5064771;28;19935;-71
2023/07/02 01:15:03;;;;;;;;;;;;;;;22.56;46.67;100574.56;5042735;28;19917;-72
2023/07/02 01:17:28;;;;;;;;;;;;;;;22.56;46.33;100577.28;5050035;28;20389;-71
2023/07/02 01:19:54;;;;;;;;;;;;;;;22.56;46.53;100579.97;5042146;28;19917;-71
2023/07/02 01:22:19;;;;;;;;;;;;;;;22.56;46.69;100577.28;5043125;28;19999;-72
2023/07/02 01:24:46;;;;;;;;;;;;;;;22.55;46.49;100583.72;5067966;28;19913;-71
2023/07/02 01:27:12;;;;;;;;;;;;;;;22.54;46.66;100582.88;5053391;28;19920;-71
2023/07/02 01:29:37;;;;;;;;;;;;;;;22.54;46.55;100582.88;5071862;28;19916;-71
2023/07/02 01:32:02;;;;;;;;;;;;;;;22.53;46.61;100585.78;5059578;28;20002;-72
2023/07/02 01:34:28;;;;;;;;;;;;;;;22.54;46.68;100587.47;5042107;28;19962;-71
2023/07/02 01:36:53;;;;;;;;;;;;;;;22.54;46.54;100592.88;5069423;28;19943;-71
2023/07/02 01:39:18;;;;;;;;;;;;;;;22.52;46.34;100595.81;5066593;28;20358;-71
2023/07/02 01:41:50;;;;;;;;;;;;;;;22.53;46.55;100596.63;5061531;28;19924;-72
2023/07/02 01:44:15;;;;;;;;;;;;;;;22.52;46.51;100597.69;5069498;28;20397;-72
2023/07/02 01:46:40;;;;;;;;;;;;;;;22.52;46.36;100594.97;5065884;28;19914;-72
2023/07/02 01:49:05;;;;;;;;;;;;;;;22.52;46.50;100603.09;5060005;28;19913;-71
2023/07/02 01:51:31;;;;;;;;;;;;;;;22.52;46.51;100597.69;5073513;28;19916;-71
2023/07/02 01:53:56;;;;;;;;;;;;;;;22.50;46.29;100600.56;5060030;28;19931;-71
2023/07/02 01:56:21;;;;;;;;;;;;;;;22.51;46.54;100601.41;5052786;28;19912;-72
2023/07/02 01:58:46;;;;;;;;;;;;;;;22.49;46.50;100604.31;5066326;28;19919;-71
2023/07/02 02:01:11;;;;;;;;;;;;;;;22.50;46.51;100607.88;5042880;28;19921;-72
2023/07/02 02:03:36;;;;;;;;;;;;;;;22.49;46.36;100617.88;5072593;28;19913;-71
2023/07/02 02:06:02;;;;;;;;;;;;;;;22.49;46.07;100612.44;5063124;28;19924;-72
2023/07/02 02:08:27;;;;;;;;;;;;;;;22.49;46.48;100617.88;5050332;28;19935;-72
2023/07/02 02:10:52;;;;;;;;;;;;;;;22.49;46.23;100612.44;5065084;28;19923;-72
2023/07/02 02:13:17;;;;;;;;;;;;;;;22.48;46.09;100618.06;5052159;28;19922;-71
2023/07/02 02:15:42;;;;;;;;;;;;;;;22.46;46.04;100607.41;5060325;28;19924;-72
2023/07/02 02:18:08;;;;;;;;;;;;;;;22.45;46.38;100612.00;5073574;28;19921;-72
2023/07/02 02:20:33;;;;;;;;;;;;;;;22.45;46.35;100612.00;5061624;28;19956;-72
2023/07/02 02:22:58;;;;;;;;;;;;;;;22.45;46.32;100617.41;5046514;28;19919;-72
2023/07/02 02:25:23;;;;;;;;;;;;;;;22.44;46.27;100613.03;5069572;28;19917;-71
2023/07/02 02:27:49;;;;;;;;;;;;;;;22.44;45.88;100617.63;5057679;28;19913;-71
2023/07/02 02:30:14;;;;;;;;;;;;;;;22.44;46.24;100612.22;5070171;28;19963;-72
2023/07/02 02:32:39;;;;;;;;;;;;;;;22.43;46.12;100615.97;5062273;28;19922;-71
2023/07/02 02:35:04;;;;;;;;;;;;;;;22.42;46.22;100617.81;5046713;28;19917;-72
2023/07/02 02:37:30;;;;;;;;;;;;;;;22.42;46.12;100616.97;5049779;28;19988;-71
2023/07/02 02:39:57;;;;;;;;;;;;;;;22.41;46.23;100618.84;5067616;28;19920;-71
2023/07/02 02:42:22;;;;;;;;;;;;;;;22.41;45.97;100616.16;5058809;28;19913;-72
2023/07/02 02:44:48;;;;;;;;;;;;;;;22.41;46.17;100623.44;5053790;28;19959;-71
2023/07/02 02:47:13;;;;;;;;;;;;;;;22.40;46.00;100616.34;5065599;28;19963;-72
2023/07/02 02:49:39;;;;;;;;;;;;;;;22.39;46.03;100628.22;5054455;28;19917;-71
2023/07/02 02:52:04;;;;;;;;;;;;;;;22.38;46.14;100624.66;5072064;28;19917;-72
2023/07/02 02:54:29;;;;;;;;;;;;;;;22.37;45.80;100623.00;5059406;28;19924;-71
2023/07/02 02:56:55;;;;;;;;;;;;;;;22.38;45.95;100631.97;5069775;28;19913;-71
2023/07/02 02:59:20;;;;;;;;;;;;;;;22.35;46.10;100635.09;5052661;28;19921;-72
2023/07/02 03:01:46;;;;;;;;;;;;;;;22.35;45.77;100630.50;5051423;28;19984;-72
2023/07/02 03:04:11;;;;;;;;;;;;;;;22.34;45.79;100633.38;5064777;28;19955;-71
2023/07/02 03:06:36;;;;;;;;;;;;;;;22.33;45.69;100626.31;5047822;28;20361;-72
2023/07/02 03:09:02;;;;;;;;;;;;;;;22.33;45.89;100639.84;5061037;28;20012;-71
2023/07/02 03:11:27;;;;;;;;;;;;;;;22.32;45.93;100632.75;5067210;28;19917;-72
2023/07/02 03:13:52;;;;;;;;;;;;;;;22.30;45.88;100638.38;5069371;28;19913;-71
2023/07/02 03:16:17;;;;;;;;;;;;;;;22.30;46.06;100649.22;5035080;28;19924;-72
2023/07/02 03:18:42;;;;;;;;;;;;;;;22.29;46.00;100643.97;5074159;28;19924;-72
2023/07/02 03:21:08;;;;;;;;;;;;;;;22.29;46.00;100646.69;5061089;28;19916;-71
2023/07/02 03:23:34;;;;;;;;;;;;;;;22.28;45.87;100648.56;5068114;28;19916;-71
2023/07/02 03:25:59;;;;;;;;;;;;;;;22.28;45.86;100647.72;5068143;28;19913;-72
2023/07/02 03:28:24;;;;;;;;;;;;;;;22.26;45.81;100645.22;5041929;28;19913;-72
2023/07/02 03:30:49;;;;;;;;;;;;;;;21.88;45.56;100580.56;5066452;28;19912;-72
2023/07/02 03:33:14;;;;;;;;;;;;;;;22.25;45.72;100648.13;5062401;28;19917;-72
2023/07/02 03:35:39;;;;;;;;;;;;;;;22.25;45.93;100650.81;5064140;28;19917;-71
2023/07/02 03:38:06;;;;;;;;;;;;;;;22.24;45.83;100660.00;5061253;28;19920;-72
2023/07/02 03:40:31;;;;;;;;;;;;;;;22.24;46.01;100651.88;5068888;28;19944;-72
2023/07/02 03:42:56;;;;;;;;;;;;;;;22.23;45.98;100655.63;5057278;28;19912;-72
2023/07/02 03:45:21;;;;;;;;;;;;;;;22.21;45.92;100645.78;5071551;28;19913;-71
2023/07/02 03:47:46;;;;;;;;;;;;;;;22.22;45.77;100662.91;5063603;28;19951;-72
2023/07/02 03:50:12;;;;;;;;;;;;;;;22.20;45.82;100660.38;5056615;28;19916;-71
2023/07/02 03:52:37;;;;;;;;;;;;;;;22.20;45.97;100657.66;5071457;28;19995;-71
2023/07/02 03:55:02;;;;;;;;;;;;;;;22.20;45.92;100664.97;5056580;28;19917;-71
2023/07/02 03:57:27;;;;;;;;;;;;;;;22.19;45.74;100666.84;5064730;28;19917;-72
2023/07/02 03:59:53;;;;;;;;;;;;;;;22.19;45.71;100666.00;5063579;28;19966;-72
2023/07/02 04:02:18;;;;;;;;;;;;;;;22.18;45.54;100680.59;5067689;28;19917;-72
2023/07/02 04:04:43;;;;;;;;;;;;;;;22.18;45.86;100680.59;5062409;28;19921;-72
2023/07/02 04:07:08;;;;;;;;;;;;;;;22.17;45.54;100690.56;5055607;28;19928;-72
2023/07/02 04:09:34;;;;;;;;;;;;;;;22.17;45.84;100687.88;5058947;28;20293;-71
2023/07/02 04:12:01;;;;;;;;;;;;;;;22.16;45.87;100694.28;5061411;28;19992;-71
2023/07/02 04:14:27;;;;;;;;;;;;;;;22.15;45.75;100670.13;5067085;28;19947;-71
2023/07/02 04:16:52;;;;;;;;;;;;;;;22.15;45.69;100670.13;5052068;28;19914;-71
2023/07/02 04:19:17;;;;;;;;;;;;;;;22.15;45.81;100675.53;5075745;28;19975;-72
2023/07/02 04:21:42;;;;;;;;;;;;;;;22.14;45.78;100684.72;5041790;28;19917;-71
2023/07/02 04:24:08;;;;;;;;;;;;;;;22.13;45.77;100694.72;5064748;28;19913;-71
2023/07/02 04:26:33;;;;;;;;;;;;;;;22.13;45.74;100686.59;5067595;28;19924;-72
2023/07/02 04:28:58;;;;;;;;;;;;;;;22.12;45.74;100690.31;5065016;28;19917;-71
2023/07/02 04:31:24;;;;;;;;;;;;;;;22.12;45.68;100684.88;5049229;28;19921;-71
2023/07/02 04:33:49;;;;;;;;;;;;;;;22.12;45.83;100682.19;5067934;28;19913;-72
2023/07/02 04:36:14;;;;;;;;;;;;;;;22.11;45.76;100691.31;5063320;28;19912;-72
2023/07/02 04:38:39;;;;;;;;;;;;;;;22.12;45.71;100690.31;5059133;28;19916;-72
2023/07/02 04:41:05;;;;;;;;;;;;;;;22.10;45.52;100692.34;5071094;28;20290;-72
2023/07/02 04:43:33;;;;;;;;;;;;;;;22.10;45.58;100688.81;5037345;28;20444;-71
2023/07/02 04:45:58;;;;;;;;;;;;;;;22.09;45.47;100690.69;5070551;28;19916;-72
2023/07/02 04:48:24;;;;;;;;;;;;;;;22.09;45.71;100700.66;5063450;28;19928;-71
2023/07/02 04:50:49;;;;;;;;;;;;;;;22.10;45.63;100705.06;5058665;28;19913;-72
2023/07/02 04:53:14;;;;;;;;;;;;;;;22.09;45.72;100704.22;5067298;28;20409;-71
2023/07/02 04:55:39;;;;;;;;;;;;;;;22.10;45.57;100702.34;5045461;28;19927;-71
2023/07/02 04:58:05;;;;;;;;;;;;;;;22.09;45.65;100703.34;5062376;28;19919;-71
2023/07/02 05:00:30;;;;;;;;;;;;;;;22.09;45.48;100706.94;5048678;28;20016;-72
2023/07/02 05:02:55;;;;;;;;;;;;;;;22.09;45.30;100700.66;5047745;28;20054;-71
2023/07/02 05:05:20;;;;;;;;;;;;;;;22.08;45.52;100701.69;5055690;28;20443;-71
2023/07/02 05:07:45;;;;;;;;;;;;;;;22.08;45.66;100704.41;5071275;28;19988;-71
2023/07/02 05:10:11;;;;;;;;;;;;;;;22.07;45.50;100714.38;5059287;28;19913;-71
2023/07/02 05:12:36;;;;;;;;;;;;;;;22.07;45.53;100708.97;5070635;28;19920;-71
2023/07/02 05:15:01;;;;;;;;;;;;;;;22.07;45.61;100706.25;5070427;28;19946;-71
2023/07/02 05:17:26;;;;;;;;;;;;;;;22.08;45.62;100717.94;5060907;28;19921;-71
2023/07/02 05:19:51;;;;;;;;;;;;;;;22.06;45.33;100715.44;5073777;28;19948;-71
2023/07/02 05:22:17;;;;;;;;;;;;;;;22.07;45.53;100717.09;5062611;28;19920;-71
2023/07/02 05:24:43;;;;;;;;;;;;;;;22.06;45.50;100712.72;5064220;28;20038;-72
2023/07/02 05:27:09;;;;;;;;;;;;;;;22.07;45.35;100716.25;5070175;28;19916;-72
2023/07/02 05:29:34;;;;;;;;;;;;;;;22.06;45.55;100723.56;5056525;28;19923;-72
2023/07/02 05:31:59;;;;;;;;;;;;;;;22.06;45.63;100726.25;5061712;28;19979;-72
2023/07/02 05:34:25;;;;;;;;;;;;;;;22.07;45.53;100721.69;5073735;28;19921;-71
2023/07/02 05:36:50;;;;;;;;;;;;;;;22.07;45.54;100727.09;5066359;28;19917;-71
2023/07/02 05:39:15;;;;;;;;;;;;;;;22.06;45.41;100717.31;5061388;28;19975;-72
2023/07/02 05:41:40;;;;;;;;;;;;;;;22.06;45.19;100734.38;5074503;28;19961;-71
2023/07/02 05:44:06;;;;;;;;;;;;;;;22.06;45.16;100737.09;5058756;28;19913;-71
2023/07/02 05:46:31;;;;;;;;;;;;;;;22.06;45.43;100722.72;5067179;28;20019;-71
2023/07/02 05:48:57;;;;;;;;;;;;;;;22.05;45.35;100729.16;5048617;28;19912;-71
2023/07/02 05:51:22;;;;;;;;;;;;;;;22.06;45.10;100725.44;5067165;28;19913;-71
2023/07/02 05:53:47;;;;;;;;;;;;;;;22.05;45.36;100731.88;5069132;28;19939;-71
2023/07/02 05:56:12;;;;;;;;;;;;;;;22.05;45.31;100740.00;5055289;28;19920;-71
2023/07/02 05:58:38;;;;;;;;;;;;;;;22.05;45.14;100735.41;5044202;28;19935;-71
2023/07/02 06:01:05;;;;;;;;;;;;;;;22.05;45.00;100738.13;5053480;28;20330;-72
2023/07/02 06:03:30;;;;;;;;;;;;;;;22.05;45.32;100745.41;5069314;28;19956;-71
2023/07/02 06:05:55;;;;;;;;;;;;;;;22.05;45.08;100745.41;5040007;28;19917;-72
2023/07/02 06:08:20;;;;;;;;;;;;;;;22.04;45.24;100749.97;5077555;28;19932;-72
2023/07/02 06:10:46;;;;;;;;;;;;;;;22.05;45.30;100745.41;5061138;28;19946;-71
2023/07/02 06:13:11;;;;;;;;;;;;;;;22.04;45.16;100755.38;5048238;28;19919;-72
2023/07/02 06:15:36;;;;;;;;;;;;;;;22.04;45.10;100758.09;5068910;28;20008;-71
2023/07/02 06:18:02;;;;;;;;;;;;;;;22.05;45.16;100756.25;5043620;28;20020;-71
2023/07/02 06:20:27;;;;;;;;;;;;;;;22.05;45.27;100764.38;5068969;28;20267;-71
2023/07/02 06:22:52;;;;;;;;;;;;;;;22.05;45.12;100764.38;5064516;28;19920;-72
2023/07/02 06:25:17;;;;;;;;;;;;;;;22.05;45.32;100756.25;5065110;28;19919;-71
2023/07/02 06:27:42;;;;;;;;;;;;;;;22.06;45.30;100768.75;5064852;28;19913;-72
2023/07/02 06:30:08;;;;;;;;;;;;;;;22.05;45.08;100769.78;5071968;28;19913;-72
2023/07/02 06:32:33;;;;;;;;;;;;;;;22.04;45.20;100762.66;5038748;28;19920;-71
2023/07/02 06:34:58;;;;;;;;;;;;;;;22.05;45.21;100775.19;5071355;28;19923;-72
2023/07/02 06:37:23;;;;;;;;;;;;;;;22.05;45.18;100777.91;5064538;28;20395;-72
2023/07/02 06:39:49;;;;;;;;;;;;;;;22.06;45.22;100779.56;5061230;28;19912;-71
2023/07/02 06:42:14;;;;;;;;;;;;;;;22.05;45.06;100769.78;5072556;28;19984;-71
2023/07/02 06:44:40;;;;;;;;;;;;;;;22.05;44.79;100775.19;5059570;28;19924;-71
2023/07/02 06:47:05;;;;;;;;;;;;;;;22.05;44.92;100780.63;5053172;28;19913;-71
2023/07/02 06:49:30;;;;;;;;;;;;;;;22.05;44.75;100783.31;5046709;28;19924;-71
2023/07/02 06:51:55;;;;;;;;;;;;;;;22.05;44.71;100783.31;5068030;28;19952;-71
2023/07/02 06:54:21;;;;;;;;;;;;;;;22.06;44.91;100795.81;5063794;28;19952;-71
2023/07/02 06:56:46;;;;;;;;;;;;;;;22.06;45.04;100790.41;5068534;28;19916;-71
2023/07/02 06:59:11;;;;;;;;;;;;;;;22.05;44.95;100794.16;5051212;28;20033;-71
2023/07/02 07:01:36;;;;;;;;;;;;;;;22.06;45.01;100790.41;5066969;28;19916;-71
2023/07/02 07:04:02;;;;;;;;;;;;;;;22.06;44.97;100796.66;5067121;28;20282;-71
2023/07/02 07:06:27;;;;;;;;;;;;;;;22.06;44.94;100796.66;5035895;28;19920;-71
2023/07/02 07:08:53;;;;;;;;;;;;;;;22.07;44.85;100797.50;5074445;28;19912;-71
2023/07/02 07:11:18;;;;;;;;;;;;;;;22.08;44.60;100799.16;5060374;28;20007;-71
2023/07/02 07:13:43;;;;;;;;;;;;;;;22.08;44.91;100810.81;5064806;28;19927;-71
2023/07/02 07:16:09;;;;;;;;;;;;;;;22.08;44.83;100810.00;5067833;28;19917;-71
2023/07/02 07:18:34;;;;;;;;;;;;;;;22.07;44.75;100814.56;5052037;28;19932;-71
2023/07/02 07:20:59;;;;;;;;;;;;;;;22.08;44.89;100808.13;5063085;28;19968;-72
2023/07/02 07:23:25;;;;;;;;;;;;;;;22.09;44.95;100812.53;5048924;28;20285;-71
2023/07/02 07:25:50;;;;;;;;;;;;;;;22.08;44.73;100808.13;5062205;28;19913;-71
2023/07/02 07:28:16;;;;;;;;;;;;;;;22.09;44.65;100823.34;5061391;28;19916;-72
2023/07/02 07:30:42;;;;;;;;;;;;;;;22.09;45.01;100820.66;5070846;28;19913;-72
2023/07/02 07:33:07;;;;;;;;;;;;;;;22.10;45.04;100827.72;5056526;28;19913;-72
2023/07/02 07:35:32;;;;;;;;;;;;;;;22.10;45.03;100819.59;5053150;28;20015;-72
2023/07/02 07:37:57;;;;;;;;;;;;;;;22.10;44.92;100832.31;5063706;28;19917;-72
2023/07/02 07:40:22;;;;;;;;;;;;;;;22.10;44.84;100832.31;5058459;28;19917;-71
2023/07/02 07:42:48;;;;;;;;;;;;;;;22.11;44.82;100826.69;5070603;28;19913;-72
2023/07/02 07:45:13;;;;;;;;;;;;;;;22.10;45.00;100827.72;5042920;28;19912;-72
2023/07/02 07:47:38;;;;;;;;;;;;;;;22.10;44.76;100827.72;5050581;28;19920;-71
2023/07/02 07:50:09;;;;;;;;;;;;;;;22.10;44.72;100832.31;5065559;28;20141;-71
2023/07/02 07:52:34;;;;;;;;;;;;;;;22.10;44.68;100829.59;5047281;28;19917;-71
2023/07/02 07:55:00;;;;;;;;;;;;;;;22.10;44.90;100825.03;5041167;28;19924;-72
2023/07/02 07:57:25;;;;;;;;;;;;;;;22.09;44.92;100836.91;5070988;28;19913;-71
2023/07/02 07:59:50;;;;;;;;;;;;;;;22.08;44.85;100837.06;5059184;28;19936;-72
2023/07/02 08:02:15;;;;;;;;;;;;;;;22.08;44.84;100837.91;5063912;28;19916;-72
2023/07/02 08:04:40;;;;;;;;;;;;;;;22.07;44.74;100841.66;5067775;28;19920;-72
2023/07/02 08:07:08;;;;;;;;;;;;;;;22.07;44.62;100838.94;5054392;28;19921;-72
2023/07/02 08:09:33;;;;;;;;;;;;;;;22.07;44.60;100836.22;5071779;28;19927;-71
2023/07/02 08:11:58;;;;;;;;;;;;;;;22.09;44.80;100841.44;5059386;28;20007;-71
2023/07/02 08:14:24;;;;;;;;;;;;;;;22.08;44.59;100847.91;5043093;28;20066;-71
2023/07/02 08:16:49;;;;;;;;;;;;;;;22.06;44.74;100837.25;5066320;28;19916;-72
2023/07/02 08:19:14;;;;;;;;;;;;;;;22.08;44.75;100850.59;5047992;28;19978;-72
2023/07/02 08:21:39;;;;;;;;;;;;;;;22.07;44.80;100846.22;5060447;28;19912;-72
2023/07/02 08:24:06;;;;;;;;;;;;;;;22.07;44.69;100859.75;5068167;28;19920;-71
2023/07/02 08:26:31;;;;;;;;;;;;;;;22.07;44.93;100848.94;5061508;28;19920;-72
2023/07/02 08:28:56;;;;;;;;;;;;;;;22.07;44.72;100851.63;5059161;28;19913;-71
2023/07/02 08:31:21;;;;;;;;;;;;;;;22.07;44.65;100851.63;5070593;28;19924;-72
2023/07/02 08:33:47;;;;;;;;;;;;;;;22.08;44.77;100847.91;5055655;28;19935;-72
2023/07/02 08:36:13;;;;;;;;;;;;;;;22.07;44.71;100852.47;5069280;28;19949;-72
2023/07/02 08:38:41;;;;;;;;;;;;;;;22.08;44.42;100856.84;5062122;28;19913;-72
2023/07/02 08:41:06;;;;;;;;;;;;;;;22.08;44.66;100850.59;5060532;28;19913;-72
2023/07/02 08:43:32;;;;;;;;;;;;;;;22.09;44.46;100861.25;5050370;28;20008;-72
2023/07/02 08:45:57;;;;;;;;;;;;;;;22.08;44.34;100870.38;5046622;28;19963;-71
2023/07/02 08:48:24;;;;;;;;;;;;;;;22.09;44.60;100868.53;5064014;28;19954;-72
2023/07/02 08:50:49;;;;;;;;;;;;;;;22.09;44.70;100873.94;5071197;28;19913;-72
2023/07/02 08:53:14;;;;;;;;;;;;;;;22.09;44.52;100869.38;5059695;28;20013;-72
2023/07/02 08:55:40;;;;;;;;;;;;;;;22.10;44.26;100879.19;5063877;28;20405;-71
2023/07/02 08:58:05;;;;;;;;;;;;;;;22.09;44.53;100874.81;5080704;28;19963;-72
2023/07/02 09:00:35;;;;;;;;;;;;;;;22.10;44.42;100884.59;5063879;28;20595;-71
2023/07/02 09:03:10;;;;;;;;;;;;;;;22.11;44.51;100898.97;5072319;28;19988;-71
2023/07/02 09:05:35;;;;;;;;;;;;;;;22.11;44.39;100888.13;5070987;28;19917;-71
2023/07/02 09:08:00;;;;;;;;;;;;;;;22.10;44.15;100898.13;5065455;28;19914;-71
2023/07/02 09:10:27;;;;;;;;;;;;;;;22.11;44.45;100896.25;5076835;28;19913;-72
2023/07/02 09:13:02;;;;;;;;;;;;;;;22.12;44.44;100900.63;5067074;28;20286;-71
2023/07/02 09:15:27;;;;;;;;;;;;;;;22.12;44.19;100890.69;5067451;28;19917;-72
2023/07/02 09:17:52;;;;;;;;;;;;;;;22.12;44.38;100887.97;5052135;28;19973;-71
2023/07/02 09:20:17;;;;;;;;;;;;;;;22.13;43.97;100894.22;5073945;28;20397;-72
2023/07/02 09:22:53;;;;;;;;;;;;;;;22.13;44.26;100905.06;5062409;28;19967;-71
2023/07/02 09:25:18;;;;;;;;;;;;;;;22.14;44.21;100904.03;5059753;28;20006;-72
2023/07/02 09:27:43;;;;;;;;;;;;;;;22.15;44.23;100892.19;5064398;28;19925;-72
2023/07/02 09:30:10;;;;;;;;;;;;;;;22.14;43.88;100890.50;5071644;28;19961;-72
2023/07/02 09:32:35;;;;;;;;;;;;;;;22.14;44.23;100885.94;5054503;28;19951;-72
2023/07/02 09:35:01;;;;;;;;;;;;;;;22.15;44.11;100890.31;5063786;28;19946;-72
2023/07/02 09:37:26;;;;;;;;;;;;;;;22.14;44.18;100888.63;5057579;28;19913;-71
2023/07/02 09:39:52;;;;;;;;;;;;;;;22.15;44.10;100890.31;5048477;28;19920;-72
2023/07/02 09:42:19;;;;;;;;;;;;;;;22.15;44.04;100887.59;5050387;28;19917;-72
2023/07/02 09:44:44;;;;;;;;;;;;;;;22.16;44.01;100888.44;5069756;28;19920;-72
2023/07/02 09:47:10;;;;;;;;;;;;;;;22.16;44.11;100891.13;5054632;28;20362;-72
2023/07/02 09:49:36;;;;;;;;;;;;;;;22.16;43.70;100883.00;5063256;28;19913;-71
2023/07/02 09:52:02;;;;;;;;;;;;;;;22.16;43.96;100902.81;5076140;28;20029;-72
2023/07/02 09:54:28;;;;;;;;;;;;;;;22.17;43.73;100920.75;5069069;28;19916;-72
2023/07/02 09:56:53;;;;;;;;;;;;;;;22.18;43.99;100897.22;5047352;28;19945;-71
2023/07/02 09:59:19;;;;;;;;;;;;;;;22.17;43.92;100909.94;5071863;28;20418;-72
2023/07/02 10:01:44;;;;;;;;;;;;;;;22.19;44.06;100905.16;5057086;28;19953;-72
2023/07/02 10:04:13;;;;;;;;;;;;;;;22.18;43.85;100911.59;5055324;28;19918;-71
2023/07/02 10:06:48;;;;;;;;;;;;;;;22.18;43.99;100911.59;5063897;28;19923;-72
2023/07/02 10:09:13;;;;;;;;;;;;;;;22.19;43.62;100925.97;5035311;28;19940;-72
2023/07/02 10:11:38;;;;;;;;;;;;;;;22.18;43.55;100925.13;5068395;28;19916;-72
2023/07/02 10:14:03;;;;;;;;;;;;;;;22.18;43.79;100924.31;5049224;28;19917;-71
2023/07/02 10:16:31;;;;;;;;;;;;;;;22.18;43.71;100925.13;5062600;28;19923;-72
2023/07/02 10:19:07;;;;;;;;;;;;;;;22.20;43.71;100933.06;5069331;28;19920;-72
2023/07/02 10:21:32;;;;;;;;;;;;;;;22.19;43.63;100928.69;5044805;28;19913;-72
2023/07/02 10:24:08;;;;;;;;;;;;;;;22.19;43.72;100915.97;5061959;28;19961;-72
2023/07/02 10:26:33;;;;;;;;;;;;;;;22.20;43.81;100933.06;5067988;28;19997;-73
2023/07/02 10:28:58;;;;;;;;;;;;;;;22.21;43.78;100923.91;5056663;28;19913;-72
2023/07/02 10:31:24;;;;;;;;;;;;;;;22.22;43.66;100925.59;5070753;28;19913;-72
2023/07/02 10:33:49;;;;;;;;;;;;;;;22.21;43.76;100922.03;5064570;28;19904;-72
2023/07/02 10:36:18;;;;;;;;;;;;;;;22.23;43.75;100932.69;5063417;28;19943;-72
2023/07/02 10:38:43;;;;;;;;;;;;;;;22.24;43.53;100933.53;5053765;28;19913;-72
2023/07/02 10:41:08;;;;;;;;;;;;;;;22.23;43.48;100932.69;5047950;28;19917;-72
2023/07/02 10:43:33;;;;;;;;;;;;;;;22.24;43.77;100938.94;5061008;28;19913;-71
2023/07/02 10:46:00;;;;;;;;;;;;;;;22.24;43.72;100937.06;5067695;28;19916;-71
2023/07/02 10:48:25;;;;;;;;;;;;;;;22.25;43.66;100937.91;5054856;28;19917;-71
2023/07/02 10:50:50;;;;;;;;;;;;;;;22.25;43.58;100936.03;5056239;28;19912;-72
2023/07/02 10:53:16;;;;;;;;;;;;;;;22.26;43.50;100929.59;5073157;28;19927;-71
2023/07/02 10:55:41;;;;;;;;;;;;;;;22.28;43.38;100913.16;5059458;28;19917;-72
2023/07/02 10:58:07;;;;;;;;;;;;;;;22.29;43.45;100922.94;5068994;28;19955;-72
2023/07/02 11:00:33;;;;;;;;;;;;;;;22.29;43.44;100914.81;5066153;28;20011;-72
2023/07/02 11:02:58;;;;;;;;;;;;;;;22.31;43.43;100919.03;5059865;28;19917;-72
2023/07/02 11:05:23;;;;;;;;;;;;;;;22.32;43.37;100928.84;5049732;28;19988;-71
2023/07/02 11:07:56;;;;;;;;;;;;;;;22.32;43.34;100936.97;5051888;28;19919;-72
2023/07/02 11:10:21;;;;;;;;;;;;;;;22.32;43.49;100939.66;5050296;28;19913;-72
2023/07/02 11:12:46;;;;;;;;;;;;;;;22.33;43.47;100952.19;5066123;28;19995;-72
2023/07/02 11:15:13;;;;;;;;;;;;;;;22.33;43.30;100938.63;5056515;28;19917;-71
2023/07/02 11:17:40;;;;;;;;;;;;;;;22.34;43.31;100936.75;5057052;28;19920;-72
2023/07/02 11:20:06;;;;;;;;;;;;;;;22.35;43.29;100941.16;5056308;28;19917;-71
2023/07/02 11:22:32;;;;;;;;;;;;;;;22.38;42.82;100948.88;5061175;28;19953;-71
2023/07/02 11:24:57;;;;;;;;;;;;;;;22.39;43.01;100942.47;5044487;28;19983;-72
2023/07/02 11:27:22;;;;;;;;;;;;;;;22.41;43.12;100953.94;5067912;28;19913;-72
2023/07/02 11:29:48;;;;;;;;;;;;;;;22.41;42.75;100956.66;5057915;28;20015;-72
2023/07/02 11:32:14;;;;;;;;;;;;;;;22.43;42.85;100949.19;5050479;28;19919;-72
2023/07/02 11:34:39;;;;;;;;;;;;;;;22.44;42.84;100951.69;5058821;28;19917;-72
2023/07/02 11:37:04;;;;;;;;;;;;;;;22.46;42.97;100954.19;5047068;28;19921;-72
2023/07/02 11:39:30;;;;;;;;;;;;;;;22.46;42.85;100973.16;5034774;28;19913;-72
2023/07/02 11:41:55;;;;;;;;;;;;;;;22.47;42.84;100961.28;5068042;28;19913;-72
2023/07/02 11:44:20;;;;;;;;;;;;;;;22.47;42.83;100969.41;5038982;28;19920;-71
2023/07/02 11:46:47;;;;;;;;;;;;;;;22.46;42.72;100965.88;5067363;28;19923;-72
2023/07/02 11:49:12;;;;;;;;;;;;;;;22.49;42.46;100958.41;5064888;28;20313;-71
2023/07/02 11:51:38;;;;;;;;;;;;;;;22.50;42.52;100960.91;5057994;28;19980;-71
2023/07/02 11:54:04;;;;;;;;;;;;;;;22.50;42.32;100952.78;5054041;28;20392;-72
2023/07/02 11:56:29;;;;;;;;;;;;;;;22.52;42.62;100945.31;5056617;28;19912;-71
2023/07/02 11:58:54;;;;;;;;;;;;;;;22.52;42.29;100953.44;5067408;28;19921;-72
2023/07/02 12:01:19;;;;;;;;;;;;;;;22.53;42.43;100963.25;5064122;28;19935;-71
2023/07/02 12:03:45;;;;;;;;;;;;;;;22.55;42.51;100979.31;5062233;28;19923;-72
2023/07/02 12:06:10;;;;;;;;;;;;;;;22.56;42.54;100971.00;5065011;28;19917;-71
2023/07/02 12:08:35;;;;;;;;;;;;;;;22.57;42.55;100966.41;5064558;28;19920;-72
2023/07/02 12:11:00;;;;;;;;;;;;;;;22.60;42.66;100955.19;5060978;28;19978;-72
2023/07/02 12:13:26;;;;;;;;;;;;;;;22.60;42.46;100956.03;5064418;28;19913;-72
2023/07/02 12:15:51;;;;;;;;;;;;;;;22.62;42.47;100961.25;5067552;28;19956;-71
2023/07/02 12:18:17;;;;;;;;;;;;;;;22.63;42.53;100981.91;5048564;28;20287;-72
2023/07/02 12:20:42;;;;;;;;;;;;;;;22.64;42.66;100986.28;5073945;28;19924;-72
2023/07/02 12:23:07;;;;;;;;;;;;;;;22.65;42.80;100969.84;5058932;28;19980;-72
2023/07/02 12:25:32;;;;;;;;;;;;;;;22.66;42.79;100971.53;5060775;28;19942;-72
2023/07/02 12:27:57;;;;;;;;;;;;;;;22.69;42.55;100973.03;5054563;28;19963;-72